Lees Summit, Missouri
Current Conditions -  °F | °C
As of 1:53 PM on Thursday 29 Jan 2015 (Local Time) from KLXT Reporting Station
Overcast Overcast  
Wind Chill: 34°   Ceiling: 3200
Heat Index: 42°   Visibility: 10mi
Dew Point: 27°   Wind: 18mph
Humidity: 55%   Direction: 340°NNW
Pressure: 30.36"   Gusts: 25mph
Location:  38.908°N, 94.2968°W
Report Text: KLXT 291953Z AUTO 34016G22KT 10SM OVC032 06/M03 A3036 RMK AO2 PK WND 33027/1909 SLP284 T00561028
Loading
Personal Weather Stations






























Interactive Weather Map New forecast layout! Learn more

10-Day Weather Forecast

Advertisements
Track Severe Weather on mobile